createdAt,value
2023-12-08T00:00:49.539Z,1.41
2023-12-08T00:03:16.724Z,1.40
2023-12-08T00:05:43.331Z,1.44
2023-12-08T00:08:11.992Z,1.42
2023-12-08T00:10:38.507Z,1.41
2023-12-08T00:13:05.060Z,1.41
2023-12-08T00:15:32.101Z,1.42
2023-12-08T00:17:58.709Z,1.43
2023-12-08T00:20:25.307Z,1.42
2023-12-08T00:22:51.897Z,1.42
2023-12-08T00:25:18.528Z,1.43
2023-12-08T00:27:45.116Z,1.42
2023-12-08T00:30:13.363Z,1.42
2023-12-08T00:32:40.180Z,1.44
2023-12-08T00:35:07.672Z,1.37
2023-12-08T00:37:34.309Z,1.45
2023-12-08T00:40:01.163Z,1.45
2023-12-08T00:42:28.970Z,1.45
2023-12-08T00:44:55.731Z,1.46
2023-12-08T00:47:22.363Z,1.45
2023-12-08T00:49:49.115Z,1.47
2023-12-08T00:52:15.795Z,1.46
2023-12-08T00:54:42.356Z,1.46
2023-12-08T00:57:09.560Z,1.45
2023-12-08T00:59:36.188Z,1.47
2023-12-08T01:02:03.056Z,1.48
2023-12-08T01:04:29.828Z,1.47
2023-12-08T01:06:56.336Z,1.47
2023-12-08T01:09:23.076Z,1.51
2023-12-08T01:11:50.138Z,1.49
2023-12-08T01:14:16.755Z,1.50
2023-12-08T01:16:43.731Z,1.50
2023-12-08T01:19:12.197Z,1.50
2023-12-08T01:21:39.911Z,1.51
2023-12-08T01:24:07.399Z,1.50
2023-12-08T01:26:34.224Z,1.49
2023-12-08T01:29:00.962Z,1.51
2023-12-08T01:31:27.479Z,1.53
2023-12-08T01:33:54.396Z,1.53
2023-12-08T01:36:39.620Z,1.55
2023-12-08T01:39:07.707Z,1.55
2023-12-08T01:41:34.605Z,1.55
2023-12-08T01:44:01.248Z,1.54
2023-12-08T01:46:31.085Z,1.56
2023-12-08T01:48:59.374Z,1.55
2023-12-08T01:51:26.726Z,1.56
2023-12-08T01:53:53.357Z,1.57
2023-12-08T01:56:20.181Z,1.61
2023-12-08T01:58:46.978Z,1.61
2023-12-08T02:01:14.379Z,1.61
2023-12-08T02:03:41.851Z,1.62
2023-12-08T02:06:10.895Z,1.64
2023-12-08T02:08:37.884Z,1.65
2023-12-08T02:11:04.705Z,1.64
2023-12-08T02:13:31.683Z,1.65
2023-12-08T02:16:05.384Z,1.67
2023-12-08T02:18:34.277Z,1.68
2023-12-08T02:21:02.729Z,1.68
2023-12-08T02:23:29.410Z,1.70
2023-12-08T02:25:56.226Z,1.69
2023-12-08T02:28:22.844Z,1.70
2023-12-08T02:30:51.756Z,1.69
2023-12-08T02:33:30.882Z,1.73
2023-12-08T02:35:58.773Z,1.70
2023-12-08T02:38:26.094Z,1.70
2023-12-08T02:40:52.916Z,1.68
2023-12-08T02:43:19.557Z,1.69
2023-12-08T02:45:46.082Z,1.69
2023-12-08T02:48:12.665Z,1.67
2023-12-08T02:50:39.330Z,1.65
2023-12-08T02:53:05.880Z,1.61
2023-12-08T02:55:32.780Z,1.61
2023-12-08T02:57:59.390Z,1.60
2023-12-08T03:00:25.923Z,1.59
2023-12-08T03:02:52.504Z,1.56
2023-12-08T03:05:19.150Z,1.54
2023-12-08T03:07:45.914Z,1.53
2023-12-08T03:10:12.629Z,1.52
2023-12-08T03:12:39.211Z,1.51
2023-12-08T03:15:06.975Z,1.52
2023-12-08T03:17:33.609Z,1.51
2023-12-08T03:20:00.384Z,1.49
2023-12-08T03:22:27.944Z,1.46
2023-12-08T03:24:54.507Z,1.48
2023-12-08T03:27:21.654Z,1.48
2023-12-08T03:29:48.456Z,1.48
2023-12-08T03:32:15.018Z,1.47
2023-12-08T03:34:41.605Z,1.48
2023-12-08T03:37:08.166Z,1.41
2023-12-08T03:39:34.682Z,1.45
2023-12-08T03:42:01.276Z,1.44
2023-12-08T03:44:27.905Z,1.42
2023-12-08T03:46:54.454Z,1.42
2023-12-08T03:49:21.156Z,1.39
2023-12-08T03:51:47.719Z,1.40
2023-12-08T03:54:14.402Z,1.40
2023-12-08T03:56:41.047Z,1.42
2023-12-08T03:59:07.593Z,1.41
2023-12-08T04:01:34.117Z,1.37
2023-12-08T04:04:00.764Z,1.39
2023-12-08T04:06:27.731Z,1.36
2023-12-08T04:08:54.333Z,1.41
2023-12-08T04:11:20.899Z,1.38
2023-12-08T04:13:47.420Z,1.41
2023-12-08T04:16:15.427Z,1.41
2023-12-08T04:18:42.088Z,1.42
2023-12-08T04:21:08.838Z,1.44
2023-12-08T04:23:35.938Z,1.43
2023-12-08T04:26:02.438Z,1.41
2023-12-08T04:28:28.987Z,1.40
2023-12-08T04:30:55.539Z,1.41
2023-12-08T04:33:22.260Z,1.41
2023-12-08T04:35:49.000Z,1.41
2023-12-08T04:38:15.632Z,1.41
2023-12-08T04:40:42.179Z,1.39
2023-12-08T04:43:08.721Z,1.41
2023-12-08T04:45:35.275Z,1.43
2023-12-08T04:48:02.423Z,1.41
2023-12-08T04:50:29.302Z,1.40
2023-12-08T04:52:55.937Z,1.40
2023-12-08T04:55:22.549Z,1.40
2023-12-08T04:57:49.195Z,1.40
2023-12-08T05:00:16.189Z,1.42
2023-12-08T05:02:42.827Z,1.42
2023-12-08T05:05:09.433Z,1.44
2023-12-08T05:07:36.003Z,1.44
2023-12-08T05:10:02.559Z,1.41
2023-12-08T05:12:29.165Z,1.46
2023-12-08T05:14:55.733Z,1.47
2023-12-08T05:17:22.321Z,1.44
2023-12-08T05:19:49.148Z,1.45
2023-12-08T05:22:15.808Z,1.45
2023-12-08T05:24:42.376Z,1.48
2023-12-08T05:27:09.440Z,1.49
2023-12-08T05:29:36.425Z,1.49
2023-12-08T05:32:03.302Z,1.49
2023-12-08T05:34:30.492Z,1.51
2023-12-08T05:36:57.488Z,1.49
2023-12-08T05:39:24.039Z,1.52
2023-12-08T05:41:50.642Z,1.49
2023-12-08T05:44:17.406Z,1.53
2023-12-08T05:46:44.025Z,1.53
2023-12-08T05:49:10.881Z,1.53
2023-12-08T05:51:37.650Z,1.55
2023-12-08T05:54:04.450Z,1.57
2023-12-08T05:56:31.060Z,1.55
2023-12-08T05:58:57.567Z,1.54
2023-12-08T06:01:24.232Z,1.59
2023-12-08T06:03:50.911Z,1.57
2023-12-08T06:06:17.671Z,1.59
2023-12-08T06:08:44.422Z,1.60
2023-12-08T06:11:11.025Z,1.61
2023-12-08T06:13:37.624Z,1.62
2023-12-08T06:16:05.269Z,1.62
2023-12-08T06:18:32.157Z,1.62
2023-12-08T06:20:59.579Z,1.64
2023-12-08T06:23:26.495Z,1.65
2023-12-08T06:25:53.087Z,1.66
2023-12-08T06:28:19.624Z,1.67
2023-12-08T06:30:46.244Z,1.66
2023-12-08T06:33:12.904Z,1.68
2023-12-08T06:35:39.556Z,1.69
2023-12-08T06:38:06.122Z,1.70
2023-12-08T06:40:32.845Z,1.67
2023-12-08T06:42:59.545Z,1.70
2023-12-08T06:45:26.104Z,1.72
2023-12-08T06:47:52.852Z,1.71
2023-12-08T06:50:19.502Z,1.74
2023-12-08T06:52:48.061Z,1.76
2023-12-08T06:55:15.033Z,1.77
2023-12-08T06:57:41.615Z,1.76
2023-12-08T07:00:11.745Z,1.75
2023-12-08T07:02:38.778Z,1.78
2023-12-08T07:05:08.654Z,1.81
2023-12-08T07:07:35.182Z,1.81
2023-12-08T07:10:01.758Z,1.83
2023-12-08T07:12:28.256Z,1.84
2023-12-08T07:14:55.008Z,1.85
2023-12-08T07:17:21.680Z,1.85
2023-12-08T07:19:48.572Z,1.84
2023-12-08T07:22:15.328Z,1.86
2023-12-08T07:24:41.965Z,1.89
2023-12-08T07:27:08.526Z,1.89
2023-12-08T07:29:35.273Z,1.91
2023-12-08T07:32:01.963Z,1.91
2023-12-08T07:34:28.739Z,1.93
2023-12-08T07:36:55.364Z,1.93
2023-12-08T07:39:21.953Z,1.95
2023-12-08T07:41:48.689Z,1.94
2023-12-08T07:44:15.933Z,1.97
2023-12-08T07:46:42.470Z,1.97
2023-12-08T07:49:10.055Z,1.97
2023-12-08T07:51:37.875Z,2.01
2023-12-08T07:54:04.841Z,2.03
2023-12-08T07:56:31.803Z,2.03
2023-12-08T07:58:58.331Z,2.05
2023-12-08T08:01:24.889Z,2.08
2023-12-08T08:03:51.558Z,2.07
2023-12-08T08:06:18.272Z,2.09
2023-12-08T08:08:45.013Z,2.12
2023-12-08T08:11:11.576Z,2.11
2023-12-08T08:13:38.115Z,2.10
2023-12-08T08:16:04.829Z,2.12
2023-12-08T08:18:31.563Z,2.16
2023-12-08T08:20:58.341Z,2.17
2023-12-08T08:23:24.992Z,2.17
2023-12-08T08:25:51.968Z,2.18
2023-12-08T08:28:19.230Z,2.20
2023-12-08T08:30:46.339Z,2.20
2023-12-08T08:33:13.033Z,2.24
2023-12-08T08:35:42.160Z,2.27
2023-12-08T08:38:08.913Z,2.27
2023-12-08T08:40:35.542Z,2.27
2023-12-08T08:43:02.096Z,2.29
2023-12-08T08:45:28.678Z,2.30
2023-12-08T08:47:55.551Z,2.32
2023-12-08T08:50:23.352Z,2.33
2023-12-08T08:52:50.408Z,2.36
2023-12-08T08:55:17.415Z,2.38
2023-12-08T08:57:45.266Z,2.38
2023-12-08T09:00:13.861Z,2.41
2023-12-08T09:02:42.334Z,2.42
2023-12-08T09:05:09.200Z,2.47
2023-12-08T09:07:37.321Z,2.49
2023-12-08T09:10:04.612Z,2.52
2023-12-08T09:12:31.361Z,2.54
2023-12-08T09:14:58.255Z,2.55
2023-12-08T09:17:24.922Z,2.58
2023-12-08T09:19:52.443Z,2.57
2023-12-08T09:22:19.194Z,2.64
2023-12-08T09:24:45.762Z,2.66
2023-12-08T09:27:12.496Z,2.70
2023-12-08T09:29:39.137Z,2.72
2023-12-08T09:32:06.442Z,2.75
2023-12-08T09:34:34.177Z,2.77
2023-12-08T09:37:25.963Z,2.79
2023-12-08T09:39:47.802Z,2.81
2023-12-08T09:42:22.469Z,2.85
2023-12-08T09:44:50.084Z,2.87
2023-12-08T09:47:19.194Z,2.89
2023-12-08T09:49:47.843Z,2.91
2023-12-08T09:52:17.868Z,2.92
2023-12-08T09:54:45.192Z,2.97
2023-12-08T09:57:12.149Z,2.97
2023-12-08T09:59:39.887Z,3.00
2023-12-08T10:02:09.920Z,3.03
2023-12-08T10:04:37.296Z,3.06
2023-12-08T10:07:07.137Z,3.10
2023-12-08T10:09:36.183Z,3.12
2023-12-08T10:12:03.523Z,3.14
2023-12-08T10:14:30.517Z,3.17
2023-12-08T10:16:57.069Z,3.18
2023-12-08T10:19:23.914Z,3.16
2023-12-08T10:22:03.051Z,3.21
2023-12-08T10:24:34.683Z,3.24
2023-12-08T10:27:02.212Z,3.27
2023-12-08T10:29:32.606Z,3.32
2023-12-08T10:31:59.724Z,3.35
2023-12-08T10:34:27.812Z,3.39
2023-12-08T10:36:58.194Z,3.42
2023-12-08T10:39:28.692Z,3.47
2023-12-08T10:41:56.826Z,3.48
2023-12-08T10:44:26.418Z,3.56
2023-12-08T10:46:53.784Z,3.58
2023-12-08T10:49:21.564Z,3.59
2023-12-08T10:51:49.177Z,3.65
2023-12-08T10:54:18.172Z,3.66
2023-12-08T10:56:49.453Z,3.70
2023-12-08T10:59:32.585Z,3.71
2023-12-08T11:02:03.669Z,3.73
2023-12-08T11:04:34.944Z,3.77
2023-12-08T11:07:05.362Z,3.79
2023-12-08T11:09:36.802Z,3.83
2023-12-08T11:12:05.488Z,3.87
2023-12-08T11:14:39.751Z,3.91
2023-12-08T11:17:17.873Z,3.97
2023-12-08T11:19:46.002Z,4.02
2023-12-08T11:22:13.344Z,4.09
2023-12-08T11:24:42.054Z,4.14
2023-12-08T11:27:27.081Z,4.16
2023-12-08T11:30:00.041Z,4.18
2023-12-08T11:32:51.076Z,4.23
2023-12-08T11:35:19.865Z,4.26
2023-12-08T11:37:47.107Z,4.31
2023-12-08T11:40:13.974Z,4.34
2023-12-08T11:42:43.836Z,4.38
2023-12-08T11:45:14.895Z,4.43
2023-12-08T11:47:42.866Z,4.44
2023-12-08T11:50:11.782Z,4.46
2023-12-08T11:52:39.076Z,4.48
2023-12-08T11:55:13.597Z,4.54
2023-12-08T11:57:53.189Z,4.58
2023-12-08T12:00:21.848Z,4.60
2023-12-08T12:02:50.477Z,4.64
2023-12-08T12:05:17.951Z,4.65
2023-12-08T12:07:52.013Z,4.67
2023-12-08T12:10:22.722Z,4.71
2023-12-08T12:13:04.449Z,4.76
2023-12-08T12:15:34.557Z,4.75
2023-12-08T12:18:02.892Z,4.82
2023-12-08T12:20:31.151Z,4.87
2023-12-08T12:22:57.946Z,4.92
2023-12-08T12:25:24.433Z,4.96
2023-12-08T12:27:53.436Z,5.02
2023-12-08T12:30:20.259Z,5.06
2023-12-08T12:32:48.919Z,5.09
2023-12-08T12:35:16.103Z,5.16
2023-12-08T12:37:44.087Z,5.25
2023-12-08T12:40:12.018Z,5.27
2023-12-08T12:42:48.822Z,5.31
2023-12-08T12:45:31.867Z,5.36
2023-12-08T12:48:06.052Z,5.41
2023-12-08T12:50:48.594Z,5.46
2023-12-08T12:53:19.268Z,5.51
2023-12-08T12:55:47.479Z,5.58
2023-12-08T12:58:21.855Z,5.60
2023-12-08T13:00:49.247Z,5.66
2023-12-08T13:03:18.866Z,5.69
2023-12-08T13:05:47.698Z,5.70
2023-12-08T13:08:16.800Z,5.71
2023-12-08T13:10:45.575Z,5.74
2023-12-08T13:13:13.537Z,5.77
2023-12-08T13:15:41.253Z,5.79
2023-12-08T13:18:08.588Z,5.81
2023-12-08T13:20:41.349Z,5.81
2023-12-08T13:23:08.451Z,5.83
2023-12-08T13:25:35.015Z,5.83
2023-12-08T13:28:01.520Z,5.86
2023-12-08T13:30:28.125Z,5.87
2023-12-08T13:32:57.684Z,5.89
2023-12-08T13:35:24.478Z,5.93
2023-12-08T13:37:51.182Z,5.94
2023-12-08T13:40:18.202Z,6.01
2023-12-08T13:42:44.792Z,6.04
2023-12-08T13:45:11.481Z,6.05
2023-12-08T13:47:38.396Z,6.08
2023-12-08T13:50:05.445Z,6.12
2023-12-08T13:52:32.088Z,6.15
2023-12-08T13:54:58.655Z,6.17
2023-12-08T13:57:25.603Z,6.27
2023-12-08T13:59:53.791Z,6.28
2023-12-08T14:02:21.091Z,6.30
2023-12-08T14:04:47.917Z,6.34
2023-12-08T14:07:14.913Z,6.35
2023-12-08T14:09:43.043Z,6.31
2023-12-08T14:12:10.845Z,6.35
2023-12-08T14:14:40.683Z,6.40
2023-12-08T14:17:07.416Z,6.45
2023-12-08T14:19:34.361Z,6.52
2023-12-08T14:22:00.936Z,6.61
2023-12-08T14:24:28.078Z,6.58
2023-12-08T14:26:55.020Z,6.57
2023-12-08T14:29:23.262Z,6.58
2023-12-08T14:31:50.035Z,6.57
2023-12-08T14:34:16.803Z,6.56
2023-12-08T14:36:43.530Z,6.53
2023-12-08T14:39:11.493Z,6.55
2023-12-08T14:41:38.232Z,6.60
2023-12-08T14:44:05.009Z,6.60
2023-12-08T14:46:31.629Z,6.62
2023-12-08T14:48:58.392Z,6.65
2023-12-08T14:51:25.198Z,6.67
2023-12-08T14:53:52.971Z,6.65
2023-12-08T14:56:20.560Z,6.71
2023-12-08T14:58:47.550Z,6.74
2023-12-08T15:01:19.423Z,6.73
2023-12-08T15:03:47.146Z,6.77
2023-12-08T15:06:14.947Z,6.78
2023-12-08T15:08:42.323Z,6.84
2023-12-08T15:11:10.333Z,6.82
2023-12-08T15:13:37.943Z,6.82
2023-12-08T15:16:05.302Z,6.84
2023-12-08T15:18:32.968Z,6.82
2023-12-08T15:21:01.020Z,6.82
2023-12-08T15:23:33.773Z,6.87
2023-12-08T15:26:01.412Z,6.88
2023-12-08T15:28:28.218Z,6.91
2023-12-08T15:30:54.963Z,6.91
2023-12-08T15:33:21.926Z,6.81
2023-12-08T15:35:48.989Z,6.79
2023-12-08T15:38:15.739Z,6.82
2023-12-08T15:40:43.105Z,6.82
2023-12-08T15:43:09.721Z,6.87
2023-12-08T15:45:36.470Z,6.85
2023-12-08T15:48:04.117Z,6.80
2023-12-08T15:50:30.905Z,6.72
2023-12-08T15:52:57.486Z,6.71
2023-12-08T15:55:25.712Z,6.73
2023-12-08T15:57:53.940Z,6.71
2023-12-08T16:00:21.214Z,6.72
2023-12-08T16:02:48.294Z,6.73
2023-12-08T16:05:15.074Z,6.70
2023-12-08T16:07:41.903Z,6.75
2023-12-08T16:10:09.562Z,6.76
2023-12-08T16:12:36.177Z,6.70
2023-12-08T16:15:02.967Z,6.73
2023-12-08T16:17:29.731Z,6.74
2023-12-08T16:19:56.750Z,6.77
2023-12-08T16:22:23.473Z,6.78
2023-12-08T16:24:50.218Z,6.80
2023-12-08T16:27:16.859Z,6.82
2023-12-08T16:29:47.423Z,6.82
2023-12-08T16:32:14.460Z,6.82
2023-12-08T16:34:41.284Z,6.81
2023-12-08T16:37:07.977Z,6.81
2023-12-08T16:39:35.151Z,6.85
2023-12-08T16:42:01.986Z,6.84
2023-12-08T16:44:28.688Z,6.83
2023-12-08T16:46:55.405Z,6.85
2023-12-08T16:49:22.414Z,6.90
2023-12-08T16:51:51.264Z,6.93
2023-12-08T16:54:18.777Z,6.94
2023-12-08T16:56:45.773Z,6.92
2023-12-08T16:59:12.411Z,6.95
2023-12-08T17:01:39.161Z,6.91
2023-12-08T17:04:07.690Z,6.92
2023-12-08T17:06:34.629Z,6.90
2023-12-08T17:09:01.560Z,6.91
2023-12-08T17:11:28.169Z,6.91
2023-12-08T17:13:55.122Z,6.90
2023-12-08T17:16:22.754Z,6.88
2023-12-08T17:18:49.675Z,6.89
2023-12-08T17:21:17.250Z,6.93
2023-12-08T17:23:44.237Z,6.94
2023-12-08T17:26:13.121Z,6.95
2023-12-08T17:28:41.641Z,6.96
2023-12-08T17:31:08.183Z,6.94
2023-12-08T17:33:34.864Z,6.92
2023-12-08T17:36:01.857Z,6.94
2023-12-08T17:38:28.443Z,6.93
2023-12-08T17:40:54.963Z,6.95
2023-12-08T17:43:21.898Z,6.93
2023-12-08T17:45:48.443Z,6.94
2023-12-08T17:48:15.176Z,6.93
2023-12-08T17:50:41.861Z,6.95
2023-12-08T17:53:08.476Z,6.91
2023-12-08T17:55:35.044Z,6.91
2023-12-08T17:58:01.588Z,6.94
2023-12-08T18:00:28.192Z,6.91
2023-12-08T18:02:56.653Z,6.86
2023-12-08T18:05:24.090Z,6.86
2023-12-08T18:07:50.725Z,6.82
2023-12-08T18:10:17.381Z,6.83
2023-12-08T18:12:43.980Z,6.86
2023-12-08T18:15:11.220Z,6.88
2023-12-08T18:17:38.780Z,6.86
2023-12-08T18:20:06.406Z,6.85
2023-12-08T18:22:34.806Z,6.87
2023-12-08T18:25:01.391Z,6.86
2023-12-08T18:27:39.696Z,6.86
2023-12-08T18:30:15.488Z,6.85
2023-12-08T18:32:43.083Z,6.86
2023-12-08T18:35:09.847Z,6.87
2023-12-08T18:37:36.404Z,6.88
2023-12-08T18:40:04.501Z,6.90
2023-12-08T18:42:31.418Z,6.88
2023-12-08T18:44:58.467Z,6.91
2023-12-08T18:47:25.083Z,6.94
2023-12-08T18:49:51.723Z,6.95
2023-12-08T18:52:18.328Z,7.00
2023-12-08T18:54:44.952Z,7.00
2023-12-08T18:57:11.741Z,7.00
2023-12-08T18:59:39.462Z,7.03
2023-12-08T19:02:06.718Z,6.99
2023-12-08T19:04:34.901Z,7.00
2023-12-08T19:07:05.162Z,7.03
2023-12-08T19:09:31.968Z,7.02
2023-12-08T19:12:00.486Z,7.02
2023-12-08T19:14:28.693Z,7.02
2023-12-08T19:16:55.304Z,7.04
2023-12-08T19:19:22.285Z,7.00
2023-12-08T19:21:48.930Z,7.01
2023-12-08T19:24:15.528Z,7.01
2023-12-08T19:26:42.119Z,6.98
2023-12-08T19:29:08.718Z,6.99
2023-12-08T19:31:35.836Z,6.97
2023-12-08T19:34:03.981Z,6.94
2023-12-08T19:36:30.680Z,6.96
2023-12-08T19:39:00.940Z,6.97
2023-12-08T19:41:28.183Z,6.97
2023-12-08T19:43:55.852Z,7.01
2023-12-08T19:46:22.616Z,6.98
2023-12-08T19:48:49.457Z,6.96
2023-12-08T19:51:16.209Z,6.91
2023-12-08T19:53:42.966Z,6.88
2023-12-08T19:56:09.984Z,6.88
2023-12-08T19:58:36.576Z,6.88
2023-12-08T20:01:03.322Z,6.86
2023-12-08T20:03:30.040Z,6.87
2023-12-08T20:05:56.884Z,6.87
2023-12-08T20:08:23.507Z,6.80
2023-12-08T20:10:50.105Z,6.80
2023-12-08T20:13:16.933Z,6.77
2023-12-08T20:15:45.685Z,6.79
2023-12-08T20:18:12.763Z,6.77
2023-12-08T20:20:39.833Z,6.76
2023-12-08T20:23:06.794Z,6.70
2023-12-08T20:25:33.384Z,6.69
2023-12-08T20:28:01.166Z,6.65
2023-12-08T20:30:27.835Z,6.65
2023-12-08T20:32:56.996Z,6.66
2023-12-08T20:35:26.421Z,6.64
2023-12-08T20:37:52.840Z,6.64
2023-12-08T20:40:19.582Z,6.61
2023-12-08T20:42:46.159Z,6.64
2023-12-08T20:45:12.857Z,6.62
2023-12-08T20:47:39.555Z,6.62
2023-12-08T20:50:06.567Z,6.60
2023-12-08T20:52:33.124Z,6.63
2023-12-08T20:54:59.816Z,6.62
2023-12-08T20:57:27.088Z,6.65
2023-12-08T20:59:53.878Z,6.61
2023-12-08T21:02:22.177Z,6.59
2023-12-08T21:04:49.458Z,6.57
2023-12-08T21:07:16.240Z,6.56
2023-12-08T21:09:42.963Z,6.60
2023-12-08T21:12:09.597Z,6.58
2023-12-08T21:14:36.142Z,6.56
2023-12-08T21:17:03.393Z,6.58
2023-12-08T21:19:31.639Z,6.61
2023-12-08T21:22:02.241Z,6.59
2023-12-08T21:24:29.122Z,6.60
2023-12-08T21:26:55.931Z,6.57
2023-12-08T21:29:22.451Z,6.53
2023-12-08T21:31:51.490Z,6.46
2023-12-08T21:34:18.153Z,6.45
2023-12-08T21:36:45.079Z,6.46
2023-12-08T21:39:11.710Z,6.43
2023-12-08T21:41:38.382Z,6.41
2023-12-08T21:44:05.200Z,6.38
2023-12-08T21:46:31.874Z,6.36
2023-12-08T21:48:59.615Z,6.34
2023-12-08T21:51:26.870Z,6.35
2023-12-08T21:53:54.348Z,6.36
2023-12-08T21:56:29.116Z,6.40
2023-12-08T21:58:57.773Z,6.37
2023-12-08T22:01:24.392Z,6.38
2023-12-08T22:03:51.125Z,6.39
2023-12-08T22:06:17.905Z,6.37
2023-12-08T22:08:44.444Z,6.34
2023-12-08T22:11:11.021Z,6.36
2023-12-08T22:13:37.540Z,6.39
2023-12-08T22:16:04.389Z,6.35
2023-12-08T22:18:31.125Z,6.36
2023-12-08T22:20:58.184Z,6.35
2023-12-08T22:23:24.901Z,6.37
2023-12-08T22:25:51.521Z,6.34
2023-12-08T22:28:21.621Z,6.36
2023-12-08T22:30:48.180Z,6.35
2023-12-08T22:33:15.557Z,6.33
2023-12-08T22:35:42.714Z,6.33
2023-12-08T22:38:11.000Z,6.32
2023-12-08T22:40:37.572Z,6.30
2023-12-08T22:43:04.156Z,6.32
2023-12-08T22:45:30.746Z,6.30
2023-12-08T22:47:57.442Z,6.30
2023-12-08T22:50:29.170Z,6.33
2023-12-08T22:52:59.167Z,6.33
2023-12-08T22:55:25.842Z,6.32
2023-12-08T22:57:52.384Z,6.33
2023-12-08T23:00:25.392Z,6.37
2023-12-08T23:02:53.551Z,6.37
2023-12-08T23:05:21.061Z,6.41
2023-12-08T23:07:48.224Z,6.39
2023-12-08T23:10:15.684Z,6.41
2023-12-08T23:12:42.661Z,6.44
2023-12-08T23:15:09.774Z,6.44
2023-12-08T23:17:37.194Z,6.45
2023-12-08T23:20:04.542Z,6.43
2023-12-08T23:22:31.101Z,6.42
2023-12-08T23:24:57.649Z,6.48
2023-12-08T23:27:24.370Z,6.49
2023-12-08T23:29:51.171Z,6.45
2023-12-08T23:32:17.789Z,6.44
2023-12-08T23:34:44.531Z,6.38
2023-12-08T23:37:11.234Z,6.41
2023-12-08T23:39:39.471Z,6.41
2023-12-08T23:42:06.855Z,6.40
2023-12-08T23:44:33.695Z,6.38
2023-12-08T23:47:00.714Z,6.36
2023-12-08T23:49:27.540Z,6.34
2023-12-08T23:51:54.196Z,6.32
2023-12-08T23:54:20.833Z,6.31
2023-12-08T23:56:47.459Z,6.31
2023-12-08T23:59:14.225Z,6.32
